createdAt,value
2023-05-19T00:01:11.521Z,102639.88
2023-05-19T00:04:19.149Z,102637.28
2023-05-19T00:51:34.578Z,102628.75
2023-05-19T00:54:56.744Z,102625.28
2023-05-19T00:58:04.403Z,102628.75
2023-05-19T01:01:19.071Z,102620.09
2023-05-19T01:05:18.002Z,102619.22
2023-05-19T02:11:43.726Z,102632.44
2023-05-19T03:06:03.676Z,102627.25
2023-05-19T03:09:08.467Z,102629.81
2023-05-19T03:12:13.105Z,102622.03
2023-05-19T03:15:18.716Z,102623.75
2023-05-19T03:18:24.704Z,102622.00
2023-05-19T03:21:29.013Z,102623.75
2023-05-19T03:24:33.358Z,102624.66
2023-05-19T03:29:55.883Z,102627.22
2023-05-19T03:38:46.586Z,102639.41
2023-05-19T03:42:42.382Z,102631.59
2023-05-19T03:50:23.698Z,102632.44
2023-05-19T03:53:39.047Z,102628.97
2023-05-19T04:01:20.133Z,102628.94
2023-05-19T04:14:59.412Z,102642.84
2023-05-19T05:15:23.973Z,102653.00
2023-05-19T08:31:21.729Z,102606.59
2023-05-19T09:16:36.443Z,102546.13
2023-05-19T09:20:37.449Z,102537.91
2023-05-19T09:29:10.578Z,102518.16
2023-05-19T09:33:18.625Z,102528.19
2023-05-19T09:45:33.741Z,102507.84
2023-05-19T09:49:34.286Z,102509.53
2023-05-19T09:54:15.996Z,102505.03
2023-05-19T10:02:18.210Z,102505.63
2023-05-19T10:05:23.726Z,102494.88
2023-05-19T10:08:30.589Z,102492.03
2023-05-19T10:11:35.150Z,102490.56
2023-05-19T10:14:43.226Z,102487.41
2023-05-19T10:17:56.727Z,102486.97
2023-05-19T10:21:20.327Z,102484.06
2023-05-19T10:24:28.409Z,102485.00
2023-05-19T10:27:46.942Z,102478.00
2023-05-19T10:31:06.236Z,102475.41
2023-05-19T10:34:50.603Z,102464.09
2023-05-19T10:42:16.004Z,102462.22
2023-05-19T10:45:30.290Z,102460.91
2023-05-19T10:48:40.043Z,102457.41
2023-05-19T10:51:49.107Z,102452.94
2023-05-19T10:54:54.961Z,102445.97
2023-05-19T10:58:00.503Z,102435.75
2023-05-19T11:01:19.629Z,102435.63
2023-05-19T11:04:50.129Z,102434.03
2023-05-19T11:08:04.813Z,102431.97
2023-05-19T11:11:17.679Z,102429.03
2023-05-19T11:14:26.643Z,102432.75
2023-05-19T11:17:31.799Z,102427.88
2023-05-19T11:20:39.461Z,102422.53
2023-05-19T11:23:44.059Z,102417.28
2023-05-19T11:26:48.896Z,102416.72
2023-05-19T11:29:59.295Z,102424.63
2023-05-19T11:33:04.802Z,102423.88
2023-05-19T11:36:11.043Z,102413.97
2023-05-19T11:39:16.676Z,102418.25
2023-05-19T11:42:21.314Z,102413.19
2023-05-19T11:45:32.853Z,102404.38
2023-05-19T11:48:38.216Z,102403.97
2023-05-19T11:51:44.656Z,102406.06
2023-05-19T11:54:50.226Z,102402.16
2023-05-19T11:58:08.649Z,102397.38
2023-05-19T12:01:13.757Z,102398.44
2023-05-19T12:04:19.675Z,102394.34
2023-05-19T12:07:26.076Z,102397.09
2023-05-19T12:10:33.893Z,102393.16
2023-05-19T12:13:38.649Z,102397.75
2023-05-19T12:16:43.601Z,102396.69
2023-05-19T12:19:50.335Z,102397.91
2023-05-19T12:22:58.489Z,102391.09
2023-05-19T12:26:11.624Z,102401.56
2023-05-19T12:29:16.211Z,102391.63
2023-05-19T12:32:28.968Z,102394.88
2023-05-19T12:35:37.519Z,102392.66
2023-05-19T12:38:44.040Z,102385.41
2023-05-19T12:41:54.122Z,102383.91
2023-05-19T12:45:01.532Z,102373.94
2023-05-19T12:48:17.336Z,102369.28
2023-05-19T12:51:23.960Z,102361.41
2023-05-19T12:54:33.932Z,102363.13
2023-05-19T12:57:45.291Z,102367.88
2023-05-19T13:00:50.547Z,102376.72
2023-05-19T13:03:56.904Z,102373.28
2023-05-19T13:07:02.847Z,102363.47
2023-05-19T13:10:09.573Z,102369.28
2023-05-19T13:13:18.198Z,102360.06
2023-05-19T13:16:22.963Z,102355.34
2023-05-19T13:19:30.266Z,102364.59
2023-05-19T13:22:38.202Z,102339.16
2023-05-19T13:25:43.871Z,102351.03
2023-05-19T13:28:48.905Z,102341.13
2023-05-19T13:31:53.036Z,102345.25
2023-05-19T13:34:57.410Z,102338.13
2023-05-19T13:38:05.018Z,102332.81
2023-05-19T13:41:13.729Z,102335.81
2023-05-19T13:44:18.617Z,102330.59
2023-05-19T13:47:26.206Z,102329.91
2023-05-19T13:50:34.362Z,102338.78
2023-05-19T13:53:42.716Z,102334.09
2023-05-19T13:56:49.615Z,102320.22
2023-05-19T14:00:02.517Z,102315.66
2023-05-19T14:03:08.054Z,102310.72
2023-05-19T14:06:13.963Z,102318.34
2023-05-19T14:09:21.238Z,102323.19
2023-05-19T14:12:35.387Z,102317.03
2023-05-19T14:15:45.154Z,102317.22
2023-05-19T14:18:50.372Z,102320.22
2023-05-19T14:21:54.966Z,102324.91
2023-05-19T14:25:06.682Z,102320.31
2023-05-19T14:28:18.800Z,102315.66
2023-05-19T14:31:30.330Z,102314.50
2023-05-19T14:34:36.182Z,102323.91
2023-05-19T14:37:50.881Z,102322.19
2023-05-19T14:44:16.756Z,102323.41
2023-05-19T14:47:31.050Z,102325.56
2023-05-19T14:50:35.881Z,102328.22
2023-05-19T14:53:47.476Z,102323.84
2023-05-19T15:00:31.627Z,102309.25
2023-05-19T15:03:36.348Z,102317.22
2023-05-19T15:06:41.166Z,102311.97
2023-05-19T15:09:55.294Z,102317.91
2023-05-19T15:13:02.487Z,102316.00
2023-05-19T15:16:17.327Z,102319.00
2023-05-19T15:19:22.857Z,102311.63
2023-05-19T15:22:31.136Z,102312.03
2023-05-19T15:25:46.957Z,102304.59
2023-05-19T15:28:53.023Z,102308.75
2023-05-19T15:31:59.094Z,102306.63
2023-05-19T15:35:04.579Z,102299.75
2023-05-19T15:38:12.019Z,102300.53
2023-05-19T15:41:17.462Z,102298.91
2023-05-19T15:44:24.289Z,102290.13
2023-05-19T15:47:45.166Z,102305.88
2023-05-19T15:50:50.880Z,102302.00
2023-05-19T15:54:00.389Z,102314.28
2023-05-19T15:57:08.193Z,102321.34
2023-05-19T16:00:13.901Z,102321.31
2023-05-19T16:03:23.566Z,102308.72
2023-05-19T16:06:28.526Z,102318.22
2023-05-19T16:09:33.648Z,102308.53
2023-05-19T16:13:02.785Z,102313.97
2023-05-19T16:20:05.682Z,102301.38
2023-05-19T16:23:16.824Z,102303.53
2023-05-19T16:26:22.110Z,102297.72
2023-05-19T16:29:26.623Z,102297.56
2023-05-19T16:32:33.954Z,102297.44
2023-05-19T16:35:39.359Z,102294.94
2023-05-19T16:38:43.824Z,102295.63
2023-05-19T16:41:53.206Z,102304.91
2023-05-19T16:44:58.258Z,102296.25
2023-05-19T16:48:13.594Z,102302.78
2023-05-19T17:15:08.264Z,102303.78
2023-05-19T17:19:41.301Z,102295.06
2023-05-19T17:24:02.313Z,102311.25
2023-05-19T17:31:34.238Z,102311.44
2023-05-19T17:39:13.660Z,102310.81
2023-05-19T17:42:18.217Z,102308.09
2023-05-19T17:45:22.482Z,102316.38
2023-05-19T17:48:26.705Z,102319.47
2023-05-19T17:51:32.101Z,102324.41
2023-05-19T17:54:36.893Z,102326.28
2023-05-19T17:57:46.030Z,102327.81
2023-05-19T18:00:51.276Z,102333.19
2023-05-19T18:03:56.754Z,102337.13
2023-05-19T18:07:03.906Z,102334.88
2023-05-19T18:10:10.233Z,102344.78
2023-05-19T18:13:14.711Z,102346.78
2023-05-19T18:16:18.756Z,102349.94
2023-05-19T18:19:23.380Z,102350.97
2023-05-19T18:22:28.156Z,102349.50
2023-05-19T18:25:32.507Z,102354.81
2023-05-19T18:28:37.019Z,102360.28
2023-05-19T18:31:42.730Z,102371.03
2023-05-19T18:34:49.216Z,102382.88
2023-05-19T18:37:56.484Z,102383.84
2023-05-19T18:41:03.954Z,102389.53
2023-05-19T18:44:08.471Z,102390.72
2023-05-19T18:47:13.967Z,102394.72
2023-05-19T18:50:18.351Z,102391.59
2023-05-19T18:53:23.704Z,102403.28
2023-05-19T18:56:31.120Z,102405.31
2023-05-19T18:59:35.809Z,102396.72
2023-05-19T19:02:40.947Z,102407.53
2023-05-19T19:05:48.061Z,102411.31
2023-05-19T19:08:55.780Z,102410.00
2023-05-19T19:12:04.550Z,102424.16
2023-05-19T19:15:17.120Z,102427.16
2023-05-19T19:18:27.240Z,102432.72
2023-05-19T19:21:37.104Z,102428.56
2023-05-19T19:24:45.141Z,102434.19
2023-05-19T19:27:55.151Z,102434.41
2023-05-19T19:31:08.946Z,102442.56
2023-05-19T19:34:18.486Z,102448.81
2023-05-19T19:37:40.257Z,102438.56
2023-05-19T19:41:11.517Z,102454.69
2023-05-19T19:46:27.159Z,102451.22
2023-05-19T20:58:14.122Z,102497.66
2023-05-19T21:01:47.444Z,102503.06
2023-05-19T21:14:05.691Z,102514.34
2023-05-19T21:17:58.218Z,102519.78
2023-05-19T21:26:23.631Z,102512.22
2023-05-19T21:30:47.272Z,102513.22
2023-05-19T21:40:37.126Z,102514.47
2023-05-19T21:44:12.395Z,102532.94
2023-05-19T21:47:52.750Z,102527.75
2023-05-19T21:51:16.037Z,102527.03
2023-05-19T22:09:48.986Z,102537.50
2023-05-19T22:13:22.248Z,102531.44
2023-05-19T22:25:36.816Z,102543.31
2023-05-19T22:29:05.768Z,102548.63
2023-05-19T22:37:16.827Z,102543.56
2023-05-19T22:44:33.578Z,102549.13
2023-05-19T22:47:52.380Z,102548.34
2023-05-19T23:00:40.958Z,102547.72
2023-05-19T23:03:55.732Z,102544.28
2023-05-19T23:07:52.343Z,102548.72
2023-05-19T23:11:20.402Z,102550.63
2023-05-19T23:14:44.392Z,102550.72
2023-05-19T23:18:02.040Z,102553.44
2023-05-19T23:21:17.936Z,102549.19
2023-05-19T23:24:39.811Z,102556.22
2023-05-19T23:28:04.469Z,102560.69
2023-05-19T23:31:19.170Z,102560.69
2023-05-19T23:35:24.956Z,102564.28
2023-05-19T23:38:48.212Z,102546.91
2023-05-19T23:42:01.497Z,102554.91
2023-05-19T23:45:08.410Z,102564.44
2023-05-19T23:48:15.066Z,102561.06
2023-05-19T23:51:23.568Z,102566.41
2023-05-19T23:54:31.798Z,102569.09
2023-05-19T23:57:52.856Z,102582.25
